Time;durP1;ratioP1;P1;durP2;ratioP2;P2;SDS_P1;SDS_P2;PMS_P1;PMS_P2;Temp;Humidity;BMP_temperature;BMP_pressure;BME280_temperature;BME280_humidity;BME280_pressure;Samples;Min_cycle;Max_cycle;Signal;HPM_P1;HPM_P2
2022/05/22 00:00:18;;;;;;;7.13;2.53;;;;;204.60;224519.00;;;;5020291;28;20730;-66
2022/05/22 00:03:05;;;;;;;2.53;2.20;;;;;204.60;224519.00;;;;5020315;28;20232;-66
2022/05/22 00:05:52;;;;;;;3.70;2.70;;;;;204.60;224519.00;;;;5013069;28;20250;-66
2022/05/22 00:08:38;;;;;;;5.43;2.90;;;;;204.60;224519.00;;;;5016608;28;20335;-66
2022/05/22 00:11:25;;;;;;;12.57;2.93;;;;;204.60;224519.00;;;;5007376;28;20230;-66
2022/05/22 00:14:11;;;;;;;3.10;2.40;;;;;204.60;224519.00;;;;5020190;28;20225;-66
2022/05/22 00:16:59;;;;;;;3.80;2.60;;;;;204.60;224519.00;;;;5025976;28;20237;-66
2022/05/22 00:19:45;;;;;;;3.20;2.40;;;;;204.60;224519.00;;;;5012404;28;20752;-66
2022/05/22 00:22:33;;;;;;;8.33;2.90;;;;;204.60;224519.00;;;;5002056;28;20779;-66
2022/05/22 00:25:19;;;;;;;3.20;2.60;;;;;204.60;224519.00;;;;5007134;28;20635;-66
2022/05/22 00:28:06;;;;;;;3.13;2.40;;;;;204.60;224519.00;;;;5026119;28;20222;-66
2022/05/22 00:30:52;;;;;;;3.73;2.57;;;;;204.60;224519.00;;;;5026433;28;20252;-63
2022/05/22 00:33:38;;;;;;;3.20;2.50;;;;;204.60;224519.00;;;;5006819;28;20339;-66
2022/05/22 00:36:25;;;;;;;5.07;3.10;;;;;204.60;224519.00;;;;5007002;28;20297;-65
2022/05/22 00:39:13;;;;;;;7.47;2.67;;;;;204.60;224519.00;;;;5017038;28;20226;-65
2022/05/22 00:41:59;;;;;;;3.10;2.60;;;;;204.60;224519.00;;;;5006632;28;20233;-65
2022/05/22 00:44:47;;;;;;;9.33;2.60;;;;;204.60;224519.00;;;;5006426;28;20257;-66
2022/05/22 00:47:33;;;;;;;4.30;2.80;;;;;204.60;224519.00;;;;5007048;28;20699;-65
2022/05/22 00:50:22;;;;;;;4.83;2.70;;;;;204.60;224519.00;;;;5000625;28;20352;-64
2022/05/22 00:53:08;;;;;;;7.90;2.73;;;;;204.60;224519.00;;;;5015508;28;20228;-66
2022/05/22 00:55:56;;;;;;;4.50;2.53;;;;;204.60;224519.00;;;;5026380;28;20229;-66
2022/05/22 00:58:43;;;;;;;3.83;2.73;;;;;204.60;224519.00;;;;5016326;28;20536;-64
2022/05/22 01:01:29;;;;;;;2.97;2.50;;;;;204.60;224519.00;;;;5020452;28;20236;-66
2022/05/22 01:04:22;;;;;;;2.97;2.67;;;;;204.60;224519.00;;;;5018171;28;20241;-66
2022/05/22 01:07:09;;;;;;;4.00;2.70;;;;;204.60;224519.00;;;;5025563;28;20365;-66
2022/05/22 01:09:55;;;;;;;5.43;2.70;;;;;204.60;224519.00;;;;5025931;28;20604;-66
2022/05/22 01:12:46;;;;;;;8.60;2.90;;;;;204.60;224519.00;;;;5025690;28;20593;-68
2022/05/22 01:15:32;;;;;;;3.77;2.63;;;;;204.60;224519.00;;;;5026367;28;20261;-67
2022/05/22 01:18:19;;;;;;;4.17;3.20;;;;;204.60;224519.00;;;;5021544;28;20289;-66
2022/05/22 01:21:11;;;;;;;7.43;3.10;;;;;204.60;224519.00;;;;5025714;28;20235;-64
2022/05/22 01:23:59;;;;;;;4.60;3.20;;;;;204.60;224519.00;;;;5024282;28;20236;-65
2022/05/22 01:26:46;;;;;;;7.37;3.40;;;;;204.60;224519.00;;;;5025675;28;20237;-63
2022/05/22 01:29:33;;;;;;;4.53;2.73;;;;;204.60;224519.00;;;;5017809;28;20236;-65
2022/05/22 01:32:19;;;;;;;4.47;3.10;;;;;204.60;224519.00;;;;5003265;28;20261;-68
2022/05/22 01:35:07;;;;;;;5.03;3.17;;;;;204.60;224519.00;;;;5021161;28;20251;-64
2022/05/22 01:37:54;;;;;;;6.93;3.23;;;;;204.60;224519.00;;;;5011189;28;20715;-64
2022/05/22 01:40:41;;;;;;;6.17;3.30;;;;;204.60;224519.00;;;;5000473;28;20240;-66
2022/05/22 01:43:28;;;;;;;6.67;3.10;;;;;204.60;224519.00;;;;5002169;28;20742;-65
2022/05/22 01:46:14;;;;;;;7.30;3.00;;;;;204.60;224519.00;;;;5015082;28;20315;-66
2022/05/22 01:49:02;;;;;;;3.50;2.70;;;;;204.60;224519.00;;;;5025368;28;20292;-67
2022/05/22 01:51:48;;;;;;;7.40;2.83;;;;;204.60;224519.00;;;;5025037;28;20355;-66
2022/05/22 01:54:35;;;;;;;6.77;3.00;;;;;204.60;224519.00;;;;5013373;28;20246;-66
2022/05/22 01:57:24;;;;;;;4.73;2.70;;;;;204.60;224519.00;;;;5014362;28;21174;-66
2022/05/22 02:00:13;;;;;;;5.00;2.90;;;;;204.60;224519.00;;;;5017530;28;20368;-66
2022/05/22 02:03:01;;;;;;;7.27;3.40;;;;;204.60;224519.00;;;;5022351;28;20233;-66
2022/05/22 02:05:47;;;;;;;5.43;3.43;;;;;204.60;224519.00;;;;5012975;28;20275;-64
2022/05/22 02:08:32;;;;;;;3.70;3.13;;;;;204.60;224519.00;;;;5011958;28;20772;-67
2022/05/22 02:11:19;;;;;;;6.27;3.07;;;;;204.60;224519.00;;;;5018849;28;20228;-67
2022/05/22 02:14:06;;;;;;;4.43;3.43;;;;;204.60;224519.00;;;;5023092;28;20239;-65
2022/05/22 02:16:52;;;;;;;5.60;3.27;;;;;204.60;224519.00;;;;5024735;28;20265;-67
2022/05/22 02:19:39;;;;;;;7.60;3.10;;;;;204.60;224519.00;;;;5025257;28;20340;-66
2022/05/22 02:22:25;;;;;;;6.23;2.83;;;;;204.60;224519.00;;;;5019021;28;20314;-64
2022/05/22 02:25:12;;;;;;;4.50;3.07;;;;;204.60;224519.00;;;;5017938;28;20232;-67
2022/05/22 02:27:59;;;;;;;5.93;3.20;;;;;204.60;224519.00;;;;5025012;28;20320;-66
2022/05/22 02:30:50;;;;;;;6.83;3.67;;;;;204.60;224519.00;;;;5025414;28;20293;-66
2022/05/22 02:33:36;;;;;;;6.13;3.20;;;;;204.60;224519.00;;;;5022435;28;20724;-66
2022/05/22 02:36:23;;;;;;;4.27;3.20;;;;;204.60;224519.00;;;;5010430;28;20242;-66
2022/05/22 02:39:09;;;;;;;5.17;3.30;;;;;204.60;224519.00;;;;5026403;28;20712;-66
2022/05/22 02:42:02;;;;;;;5.23;3.23;;;;;204.60;224519.00;;;;5026963;28;20229;-65
2022/05/22 02:44:48;;;;;;;11.13;3.77;;;;;204.60;224519.00;;;;5028903;28;20314;-64
2022/05/22 02:47:36;;;;;;;4.57;3.10;;;;;204.60;224519.00;;;;5023691;28;20299;-66
2022/05/22 02:50:27;;;;;;;6.03;3.43;;;;;204.60;224519.00;;;;5021962;28;20366;-67
2022/05/22 02:53:13;;;;;;;3.87;3.13;;;;;204.60;224519.00;;;;5026778;28;20862;-66
2022/05/22 02:56:07;;;;;;;5.03;3.20;;;;;204.60;224519.00;;;;5008963;28;20259;-66
2022/05/22 02:58:53;;;;;;;4.43;3.07;;;;;204.60;224519.00;;;;5007754;28;20222;-66
2022/05/22 03:01:39;;;;;;;4.63;2.83;;;;;10.90;105498.00;;;;5008632;28;20632;-65
2022/05/22 03:04:27;;;;;;;5.20;3.20;;;;;10.90;101251.00;;;;5028006;28;20235;-65
2022/05/22 03:07:15;;;;;;;4.43;2.93;;;;;10.90;101250.00;;;;5027824;28;20224;-66
2022/05/22 03:10:02;;;;;;;5.40;2.90;;;;;10.80;101250.00;;;;5028274;28;20256;-67
2022/05/22 03:12:49;;;;;;;4.47;2.70;;;;;10.70;101243.00;;;;5027626;28;20233;-66
2022/05/22 03:15:35;;;;;;;3.37;2.70;;;;;10.70;101239.00;;;;5022635;28;20746;-64
2022/05/22 03:18:21;;;;;;;3.17;2.43;;;;;10.60;101241.00;;;;5028435;28;20242;-66
2022/05/22 03:21:09;;;;;;;4.77;2.70;;;;;10.70;101241.00;;;;5026880;28;20284;-64
2022/05/22 03:23:56;;;;;;;4.73;2.87;;;;;10.70;101236.00;;;;5027997;28;20231;-65
2022/05/22 03:26:42;;;;;;;4.23;2.93;;;;;10.70;101244.00;;;;5028331;28;20252;-65
2022/05/22 03:29:28;;;;;;;3.03;2.70;;;;;10.70;101234.00;;;;5022120;28;20237;-66
2022/05/22 03:32:15;;;;;;;5.10;2.80;;;;;10.70;101216.00;;;;5007828;28;20231;-65
2022/05/22 03:35:02;;;;;;;3.00;2.43;;;;;10.80;101242.00;;;;5025488;28;20264;-66
2022/05/22 03:37:49;;;;;;;3.90;2.80;;;;;10.80;101226.00;;;;5008287;28;20294;-66
2022/05/22 03:40:40;;;;;;;5.20;2.90;;;;;10.80;101221.00;;;;5019533;28;20236;-64
2022/05/22 03:43:27;;;;;;;4.23;3.30;;;;;10.80;101223.00;;;;5020961;28;20689;-66
2022/05/22 03:46:13;;;;;;;5.07;2.80;;;;;10.80;101219.00;;;;5016407;28;20244;-66
2022/05/22 03:49:00;;;;;;;3.40;3.10;;;;;10.90;101226.00;;;;5027744;28;20236;-67
2022/05/22 03:51:46;;;;;;;4.40;3.00;;;;;10.80;101214.00;;;;5027471;28;20731;-66
2022/05/22 03:54:34;;;;;;;4.00;2.97;;;;;10.90;101222.00;;;;5021579;28;20741;-63
2022/05/22 03:57:20;;;;;;;4.87;3.23;;;;;10.80;101214.00;;;;5019847;28;20233;-65
2022/05/22 04:00:11;;;;;;;5.77;3.10;;;;;10.90;101219.00;;;;5027535;28;20245;-64
2022/05/22 04:02:57;;;;;;;5.90;3.40;;;;;10.90;101228.00;;;;5027620;28;20239;-64
2022/05/22 04:05:44;;;;;;;7.43;3.30;;;;;10.90;101226.00;;;;5027477;28;20909;-66
2022/05/22 04:08:31;;;;;;;3.97;2.73;;;;;10.90;101218.00;;;;5020809;28;20236;-66
2022/05/22 04:11:20;;;;;;;9.20;3.40;;;;;11.00;101223.00;;;;5026332;28;20259;-66
2022/05/22 04:14:06;;;;;;;3.63;2.87;;;;;11.00;101204.00;;;;5026323;28;20252;-65
2022/05/22 04:16:53;;;;;;;4.53;2.70;;;;;11.00;101206.00;;;;5025766;28;20786;-66
2022/05/22 04:19:39;;;;;;;3.43;2.90;;;;;11.10;101223.00;;;;5026462;28;20319;-66
2022/05/22 04:22:25;;;;;;;4.87;3.40;;;;;11.10;101221.00;;;;5020113;28;20237;-65
2022/05/22 04:25:11;;;;;;;6.60;3.10;;;;;11.20;101223.00;;;;5025933;28;20241;-66
2022/05/22 04:27:59;;;;;;;4.10;3.03;;;;;11.10;101221.00;;;;5026796;28;20225;-65
2022/05/22 04:30:45;;;;;;;3.67;3.20;;;;;11.10;101225.00;;;;5034167;28;20733;-64
2022/05/22 04:33:32;;;;;;;3.40;2.80;;;;;11.20;101238.00;;;;5020062;28;20235;-66
2022/05/22 04:36:18;;;;;;;4.23;2.83;;;;;11.20;101231.00;;;;5026052;28;20307;-66
2022/05/22 04:39:05;;;;;;;5.53;3.60;;;;;11.30;101233.00;;;;5025754;28;20252;-66
2022/05/22 04:41:51;;;;;;;5.07;3.30;;;;;11.40;101241.00;;;;5026606;28;20239;-66
2022/05/22 04:44:38;;;;;;;4.80;3.13;;;;;11.40;101245.00;;;;5023051;28;20243;-64
2022/05/22 04:47:25;;;;;;;4.73;2.93;;;;;11.50;101239.00;;;;5024255;28;20233;-66
2022/05/22 04:50:12;;;;;;;3.23;2.93;;;;;11.50;101240.00;;;;5025844;28;20252;-66
2022/05/22 04:53:00;;;;;;;7.10;3.80;;;;;11.70;101234.00;;;;5026247;28;20602;-65
2022/05/22 04:55:46;;;;;;;6.13;3.53;;;;;11.70;101243.00;;;;5026452;28;20635;-66
2022/05/22 04:58:32;;;;;;;5.87;3.97;;;;;11.90;101238.00;;;;5020115;28;20231;-66
2022/05/22 05:01:20;;;;;;;6.27;4.17;;;;;11.90;101230.00;;;;5025407;28;20364;-66
2022/05/22 05:04:06;;;;;;;6.40;3.77;;;;;12.00;101229.00;;;;5025979;28;20244;-66
2022/05/22 05:06:52;;;;;;;8.43;4.40;;;;;12.10;101229.00;;;;5026574;28;20612;-64
2022/05/22 05:09:38;;;;;;;7.33;4.40;;;;;12.10;101230.00;;;;5022376;28;20606;-65
2022/05/22 05:12:25;;;;;;;10.53;4.50;;;;;12.30;101216.00;;;;5018749;28;20229;-67
2022/05/22 05:15:13;;;;;;;5.73;3.90;;;;;12.40;101226.00;;;;5025655;28;20232;-65
2022/05/22 05:18:01;;;;;;;8.17;4.40;;;;;12.40;101218.00;;;;5025381;28;20244;-66
2022/05/22 05:20:48;;;;;;;10.00;4.40;;;;;12.50;101196.00;;;;5019313;28;20245;-66
2022/05/22 05:23:35;;;;;;;13.50;5.10;;;;;12.60;101222.00;;;;5019273;28;20241;-66
2022/05/22 05:26:21;;;;;;;8.57;4.87;;;;;12.60;101225.00;;;;5025826;28;20237;-66
2022/05/22 05:29:08;;;;;;;9.53;4.83;;;;;12.70;101212.00;;;;5025281;28;20805;-65
2022/05/22 05:31:54;;;;;;;9.63;4.87;;;;;12.90;101221.00;;;;5018583;28;20284;-66
2022/05/22 05:34:42;;;;;;;6.90;4.87;;;;;12.90;101215.00;;;;5019280;28;20871;-64
2022/05/22 05:37:28;;;;;;;7.77;4.83;;;;;13.00;101206.00;;;;5018715;28;20237;-65
2022/05/22 05:40:15;;;;;;;10.90;5.60;;;;;13.00;101213.00;;;;5016894;28;20272;-65
2022/05/22 05:43:02;;;;;;;13.23;5.63;;;;;13.10;101211.00;;;;5020740;28;21087;-65
2022/05/22 05:45:48;;;;;;;10.67;5.10;;;;;13.20;101206.00;;;;5020955;28;20328;-66
2022/05/22 05:48:34;;;;;;;8.60;5.23;;;;;13.30;101213.00;;;;5019005;28;20376;-65
2022/05/22 05:51:22;;;;;;;7.93;5.00;;;;;13.40;101211.00;;;;5025470;28;20728;-66
2022/05/22 05:54:08;;;;;;;8.93;5.40;;;;;13.40;101216.00;;;;5016864;28;20281;-67
2022/05/22 05:56:54;;;;;;;11.30;5.60;;;;;13.40;101214.00;;;;5025198;28;20800;-67
2022/05/22 05:59:40;;;;;;;10.23;5.53;;;;;13.50;101211.00;;;;5016431;28;20280;-66
2022/05/22 06:02:26;;;;;;;9.87;4.83;;;;;13.60;101209.00;;;;5013525;28;20287;-64
2022/05/22 06:05:13;;;;;;;8.83;5.30;;;;;13.60;101206.00;;;;5023722;28;20225;-64
2022/05/22 06:08:01;;;;;;;7.83;4.23;;;;;13.70;101208.00;;;;5021229;28;20225;-66
2022/05/22 06:10:47;;;;;;;7.77;4.60;;;;;13.70;101208.00;;;;5019038;28;20236;-67
2022/05/22 06:13:34;;;;;;;8.27;4.67;;;;;13.90;101208.00;;;;5019232;28;20272;-65
2022/05/22 06:16:21;;;;;;;11.67;4.80;;;;;13.90;101199.00;;;;5013155;28;20776;-65
2022/05/22 06:19:07;;;;;;;8.17;4.57;;;;;13.90;101207.00;;;;5021623;28;20616;-66
2022/05/22 06:21:53;;;;;;;8.40;3.87;;;;;14.00;101214.00;;;;5029485;28;20232;-66
2022/05/22 06:24:41;;;;;;;8.10;3.70;;;;;14.00;101204.00;;;;5022588;28;20984;-65
2022/05/22 06:27:27;;;;;;;4.70;3.37;;;;;14.10;101209.00;;;;5021639;28;20225;-66
2022/05/22 06:30:15;;;;;;;7.17;3.40;;;;;14.30;101212.00;;;;5027505;28;20329;-65
2022/05/22 06:33:07;;;;;;;8.27;3.03;;;;;14.40;101214.00;;;;5015759;28;20617;-65
2022/05/22 06:35:54;;;;;;;4.77;2.67;;;;;14.40;101216.00;;;;5013521;28;20254;-67
2022/05/22 06:41:46;;;;;;;4.97;2.50;;;;;14.70;101208.00;;;;5016515;28;20257;-66
2022/05/22 06:44:32;;;;;;;7.20;2.83;;;;;14.70;101208.00;;;;5028323;28;20644;-67
2022/05/22 06:47:18;;;;;;;7.33;3.00;;;;;14.80;101212.00;;;;5021604;28;20295;-65
2022/05/22 06:50:10;;;;;;;8.83;2.90;;;;;15.00;101196.00;;;;5025846;28;20280;-65
2022/05/22 06:52:56;;;;;;;4.87;2.60;;;;;14.90;101210.00;;;;5028645;28;20321;-65
2022/05/22 06:55:43;;;;;;;4.60;2.50;;;;;15.00;101180.00;;;;5022400;28;20241;-66
2022/05/22 06:58:30;;;;;;;5.33;2.57;;;;;15.20;101210.00;;;;5021434;28;20233;-66
2022/05/22 07:01:18;;;;;;;4.53;1.93;;;;;15.30;101212.00;;;;5028471;28;20288;-65
2022/05/22 07:04:05;;;;;;;2.67;2.00;;;;;15.40;101223.00;;;;5027726;28;20229;-66
2022/05/22 07:06:52;;;;;;;3.47;2.20;;;;;15.40;101215.00;;;;5028407;28;20244;-65
2022/05/22 07:09:38;;;;;;;3.97;1.90;;;;;15.50;101224.00;;;;5028434;28;20252;-63
2022/05/22 07:12:25;;;;;;;5.73;2.00;;;;;15.50;101218.00;;;;5019402;28;20271;-65
2022/05/22 07:15:13;;;;;;;5.80;2.37;;;;;15.70;101216.00;;;;5027922;28;20237;-64
2022/05/22 07:17:59;;;;;;;3.33;1.90;;;;;15.80;101216.00;;;;5018754;28;20359;-64
2022/05/22 07:20:45;;;;;;;4.80;2.10;;;;;15.80;101213.00;;;;5022280;28;20358;-65
2022/05/22 07:23:31;;;;;;;2.87;1.97;;;;;15.80;101213.00;;;;5020666;28;20234;-63
2022/05/22 07:26:19;;;;;;;2.00;1.60;;;;;15.90;101214.00;;;;5019617;28;20588;-66
2022/05/22 07:29:05;;;;;;;3.67;2.10;;;;;16.00;101214.00;;;;5027413;28;20240;-64
2022/05/22 07:31:54;;;;;;;3.53;1.80;;;;;15.80;101215.00;;;;5021218;28;20219;-65
2022/05/22 07:34:42;;;;;;;3.07;1.50;;;;;15.80;101207.00;;;;5021442;28;20230;-65
2022/05/22 07:37:28;;;;;;;3.63;1.70;;;;;15.80;101208.00;;;;5027904;28;20239;-65
2022/05/22 07:40:14;;;;;;;1.70;1.60;;;;;16.00;101206.00;;;;5027512;28;20230;-65
2022/05/22 07:43:00;;;;;;;5.27;1.90;;;;;16.10;101205.00;;;;5034624;28;20606;-65
2022/05/22 07:45:46;;;;;;;4.10;2.10;;;;;16.30;101200.00;;;;5021165;28;21002;-65
2022/05/22 07:48:34;;;;;;;4.03;1.90;;;;;16.50;101204.00;;;;5024134;28;20255;-64
2022/05/22 07:51:20;;;;;;;3.47;1.90;;;;;16.70;101210.00;;;;5031410;28;20227;-65
2022/05/22 07:54:07;;;;;;;1.80;1.60;;;;;17.00;101202.00;;;;5031738;28;20238;-64
2022/05/22 07:56:54;;;;;;;4.80;1.53;;;;;16.80;101191.00;;;;5031933;28;20838;-66
2022/05/22 07:59:40;;;;;;;2.50;1.40;;;;;17.10;101188.00;;;;5025987;28;20606;-65
2022/05/22 08:02:26;;;;;;;3.13;1.60;;;;;17.20;101196.00;;;;5032512;28;20283;-65
2022/05/22 08:05:18;;;;;;;3.73;1.80;;;;;17.40;101196.00;;;;5032123;28;20286;-64
2022/05/22 08:08:04;;;;;;;4.20;1.73;;;;;17.40;101184.00;;;;5029673;28;20237;-66
2022/05/22 08:10:53;;;;;;;4.83;1.70;;;;;17.50;101205.00;;;;5002737;28;20237;-65
2022/05/22 08:13:40;;;;;;;6.00;1.80;;;;;17.70;101199.00;;;;4992031;28;20250;-67
2022/05/22 08:16:26;;;;;;;2.30;1.50;;;;;17.60;101185.00;;;;4992262;28;20230;-66
2022/05/22 08:19:12;;;;;;;4.37;1.70;;;;;17.70;101181.00;;;;4996294;28;20313;-67
2022/05/22 08:22:00;;;;;;;3.60;1.67;;;;;17.80;101180.00;;;;4996391;28;20294;-68
2022/05/22 08:24:46;;;;;;;2.47;1.67;;;;;18.10;101183.00;;;;5010462;28;20234;-66
2022/05/22 08:27:33;;;;;;;5.10;1.70;;;;;18.20;101175.00;;;;4991829;28;20238;-68
2022/05/22 08:30:20;;;;;;;6.73;1.90;;;;;18.30;101180.00;;;;5012709;28;20230;-67
2022/05/22 08:33:07;;;;;;;5.03;1.43;;;;;18.40;101154.00;;;;5008693;28;20338;-67
2022/05/22 08:35:53;;;;;;;3.53;1.53;;;;;18.50;101166.00;;;;5010538;28;20237;-67
2022/05/22 08:38:41;;;;;;;2.63;1.70;;;;;18.60;101163.00;;;;5012068;28;20241;-68
2022/05/22 08:41:31;;;;;;;4.77;1.47;;;;;18.80;101153.00;;;;5012001;28;20230;-67
2022/05/22 08:44:21;;;;;;;3.57;1.50;;;;;18.80;101164.00;;;;5014403;28;20365;-68
2022/05/22 08:47:17;;;;;;;1.40;1.10;;;;;18.80;101154.00;;;;5012843;28;20229;-68
2022/05/22 08:50:07;;;;;;;2.00;1.37;;;;;18.70;101139.00;;;;5011948;28;20245;-67
2022/05/22 08:52:58;;;;;;;4.77;1.70;;;;;18.90;101151.00;;;;5014744;28;20234;-67
2022/05/22 08:59:00;;;;;;;3.20;1.50;;;;;19.30;101155.00;;;;5007942;28;20229;-67
2022/05/22 09:01:51;;;;;;;3.47;1.50;;;;;19.60;101150.00;;;;5008769;28;20434;-66
2022/05/22 09:04:42;;;;;;;3.73;1.30;;;;;19.70;101156.00;;;;5006372;28;20861;-66
2022/05/22 09:07:39;;;;;;;3.53;1.50;;;;;19.80;101135.00;;;;5012433;28;20316;-68
2022/05/22 09:10:37;;;;;;;3.03;1.40;;;;;19.80;101144.00;;;;5008391;28;20597;-68
2022/05/22 09:13:32;;;;;;;4.40;1.67;;;;;20.00;101144.00;;;;5009511;28;20284;-68
2022/05/22 09:16:29;;;;;;;4.13;1.33;;;;;20.10;101141.00;;;;5009793;28;20615;-67
2022/05/22 09:19:23;;;;;;;3.93;1.33;;;;;19.90;101136.00;;;;5009672;28;20237;-66
2022/05/22 09:22:21;;;;;;;2.53;1.50;;;;;20.10;101127.00;;;;5008328;28;20234;-66
2022/05/22 09:25:16;;;;;;;3.33;1.43;;;;;20.50;101122.00;;;;5008925;28;20599;-66
2022/05/22 09:28:12;;;;;;;1.80;1.10;;;;;20.40;101069.00;;;;5007059;28;20307;-66
2022/05/22 09:31:09;;;;;;;2.00;1.40;;;;;20.70;101115.00;;;;5014381;28;20238;-68
2022/05/22 09:34:05;;;;;;;2.77;1.40;;;;;20.80;101105.00;;;;5007969;28;20230;-66
2022/05/22 09:37:00;;;;;;;5.00;1.67;;;;;20.80;101104.00;;;;5013264;28;20256;-67
2022/05/22 09:39:59;;;;;;;4.40;1.50;;;;;21.20;101104.00;;;;5014380;28;20710;-68
2022/05/22 09:43:02;;;;;;;3.60;1.47;;;;;21.50;101107.00;;;;5012342;28;20380;-65
2022/05/22 09:45:59;;;;;;;3.73;1.50;;;;;21.50;101095.00;;;;5018551;28;20233;-67
2022/05/22 09:49:00;;;;;;;3.93;1.60;;;;;21.50;101095.00;;;;5017544;28;20226;-66
2022/05/22 09:51:55;;;;;;;4.00;1.67;;;;;21.90;101092.00;;;;5022336;28;20595;-68
2022/05/22 09:55:06;;;;;;;2.97;2.00;;;;;21.80;101088.00;;;;5016777;28;20321;-66
2022/05/22 09:58:05;;;;;;;4.83;2.33;;;;;22.00;101093.00;;;;5018902;28;20239;-66
2022/05/22 10:00:58;;;;;;;5.50;2.00;;;;;21.90;101087.00;;;;5018664;28;20230;-68
2022/05/22 10:04:05;;;;;;;5.40;2.33;;;;;22.60;101094.00;;;;5017358;28;20236;-67
2022/05/22 10:07:00;;;;;;;3.47;2.60;;;;;22.50;101095.00;;;;5024074;28;20311;-67
2022/05/22 10:09:53;;;;;;;6.50;3.30;;;;;22.10;101091.00;;;;5008006;28;20236;-67
2022/05/22 10:12:49;;;;;;;4.17;2.60;;;;;22.00;101094.00;;;;4997723;28;20228;-68
2022/05/22 10:15:44;;;;;;;5.73;2.90;;;;;22.20;101103.00;;;;5002626;28;20312;-67
2022/05/22 10:18:50;;;;;;;5.67;3.30;;;;;22.20;101102.00;;;;4992466;28;20736;-67
2022/05/22 10:21:46;;;;;;;8.07;2.60;;;;;22.30;101101.00;;;;4990889;28;20333;-67
2022/05/22 10:24:44;;;;;;;3.43;2.10;;;;;21.90;101095.00;;;;5015311;28;20885;-66
2022/05/22 10:27:48;;;;;;;5.53;2.40;;;;;21.30;101095.00;;;;4994322;28;20239;-67
2022/05/22 10:30:40;;;;;;;5.40;2.27;;;;;21.20;101100.00;;;;5024337;28;20229;-69
2022/05/22 10:33:33;;;;;;;4.47;2.23;;;;;21.10;101101.00;;;;5003939;28;20309;-66
2022/05/22 10:36:24;;;;;;;5.73;2.70;;;;;20.90;101092.00;;;;5021721;28;20237;-68
2022/05/22 10:39:13;;;;;;;5.63;3.00;;;;;20.80;101085.00;;;;5024415;28;20237;-67
2022/05/22 10:45:19;;;;;;;7.47;3.00;;;;;21.00;101089.00;;;;5019614;28;20233;-68
2022/05/22 10:48:10;;;;;;;5.50;2.60;;;;;20.80;101080.00;;;;5019005;28;20329;-68
2022/05/22 10:51:02;;;;;;;5.93;2.90;;;;;20.90;101075.00;;;;5015621;28;20282;-66
2022/05/22 10:53:52;;;;;;;4.57;2.80;;;;;20.90;101065.00;;;;5009303;28;20227;-66
2022/05/22 10:56:41;;;;;;;6.60;3.03;;;;;21.60;101066.00;;;;5013422;28;20595;-65
2022/05/22 10:59:29;;;;;;;5.97;3.40;;;;;22.40;101069.00;;;;5005861;28;20362;-67
2022/05/22 11:02:19;;;;;;;5.00;2.70;;;;;22.80;101067.00;;;;5024371;28;20234;-65
2022/05/22 11:05:16;;;;;;;6.30;3.50;;;;;23.20;101059.00;;;;5022857;28;20277;-65
2022/05/22 11:08:02;;;;;;;4.73;2.67;;;;;23.20;101057.00;;;;5023306;28;20228;-66
2022/05/22 11:10:48;;;;;;;5.03;3.07;;;;;23.20;101057.00;;;;5012281;28;20287;-68
2022/05/22 11:13:36;;;;;;;3.87;3.00;;;;;22.70;101049.00;;;;5016506;28;20239;-67
2022/05/22 11:16:28;;;;;;;6.77;3.53;;;;;22.40;101046.00;;;;5007903;28;20288;-68
2022/05/22 11:19:21;;;;;;;5.70;3.23;;;;;22.10;101038.00;;;;5022692;28;20241;-67
2022/05/22 11:22:25;;;;;;;5.10;2.57;;;;;22.80;101042.00;;;;5023488;28;20235;-66
2022/05/22 11:25:25;;;;;;;6.93;3.20;;;;;23.40;101033.00;;;;5022742;28;20234;-67
2022/05/22 11:28:26;;;;;;;7.70;3.10;;;;;23.70;101039.00;;;;5025271;28;20236;-67
2022/05/22 11:31:29;;;;;;;7.27;4.47;;;;;24.00;101035.00;;;;5023288;28;20236;-67
2022/05/22 11:34:43;;;;;;;5.03;3.63;;;;;23.90;101024.00;;;;5026583;28;20239;-68
2022/05/22 11:37:45;;;;;;;5.30;2.40;;;;;23.20;101011.00;;;;5021530;28;20245;-69
2022/05/22 11:40:41;;;;;;;5.80;2.53;;;;;22.50;101011.00;;;;5018398;28;20232;-66
2022/05/22 11:43:44;;;;;;;7.73;3.00;;;;;22.50;101004.00;;;;5016367;28;20232;-66
2022/05/22 11:46:45;;;;;;;3.97;2.57;;;;;22.30;101005.00;;;;5007667;28;20241;-66
2022/05/22 11:49:41;;;;;;;3.50;2.57;;;;;22.00;100991.00;;;;5026734;28;20227;-67
2022/05/22 11:52:56;;;;;;;10.90;3.90;;;;;22.10;100994.00;;;;5019601;28;20618;-65
2022/05/22 11:55:56;;;;;;;6.13;3.00;;;;;21.90;100990.00;;;;5010079;28;20735;-65
2022/05/22 11:58:49;;;;;;;13.23;2.70;;;;;22.00;100992.00;;;;5026333;28;20239;-69
2022/05/22 12:01:45;;;;;;;6.93;2.30;;;;;21.90;100990.00;;;;5020402;28;20781;-66
2022/05/22 12:04:52;;;;;;;9.13;3.13;;;;;22.60;100987.00;;;;5006174;28;20319;-67
2022/05/22 12:08:04;;;;;;;8.73;3.20;;;;;22.70;100990.00;;;;5025544;28;20667;-70
2022/05/22 12:10:58;;;;;;;6.43;3.20;;;;;22.40;100976.00;;;;5018640;28;20343;-69
2022/05/22 12:13:50;;;;;;;3.57;2.57;;;;;22.00;100972.00;;;;5008683;28;20236;-69
2022/05/22 12:16:42;;;;;;;3.57;2.60;;;;;21.90;100975.00;;;;5016978;28;20335;-68
2022/05/22 12:19:39;;;;;;;4.77;2.60;;;;;21.70;100973.00;;;;5017340;28;20374;-68
2022/05/22 12:23:07;;;;;;;3.63;2.40;;;;;21.80;100960.00;;;;5025799;28;20370;-66
2022/05/22 12:25:36;;;;;;;6.87;2.37;;;;;21.80;100968.00;;;;5018413;28;20290;-67
2022/05/22 12:28:38;;;;;;;6.30;2.50;;;;;22.00;100968.00;;;;5005826;28;20231;-68
2022/05/22 12:31:29;;;;;;;8.63;2.33;;;;;21.90;100968.00;;;;5005783;28;20231;-66
2022/05/22 12:34:21;;;;;;;4.67;2.43;;;;;21.70;100964.00;;;;5003373;28;20240;-66
2022/05/22 12:37:17;;;;;;;2.30;2.10;;;;;21.80;100957.00;;;;4996815;28;20256;-66
2022/05/22 12:40:17;;;;;;;4.73;2.40;;;;;21.90;100962.00;;;;5001022;28;20717;-69
2022/05/22 12:43:06;;;;;;;4.90;2.47;;;;;21.90;100970.00;;;;5016351;28;20367;-68
2022/05/22 12:45:54;;;;;;;4.77;2.40;;;;;22.10;100963.00;;;;5017659;28;20230;-66
2022/05/22 12:48:43;;;;;;;6.40;2.80;;;;;23.20;100955.00;;;;5026684;28;20326;-70
2022/05/22 12:51:35;;;;;;;5.33;2.80;;;;;23.30;100964.00;;;;5023934;28;20237;-67
2022/05/22 12:54:23;;;;;;;4.90;2.73;;;;;23.40;100961.00;;;;5026829;28;20788;-69
2022/05/22 12:57:16;;;;;;;4.60;2.67;;;;;23.60;100947.00;;;;5007868;28;20404;-70
2022/05/22 13:00:18;;;;;;;6.33;2.83;;;;;24.20;100950.00;;;;5012871;28;20619;-67
2022/05/22 13:03:09;;;;;;;6.03;2.70;;;;;23.40;100945.00;;;;5009474;28;20305;-68
2022/05/22 13:06:01;;;;;;;5.43;2.80;;;;;23.20;100936.00;;;;5006633;28;20238;-68
2022/05/22 13:09:02;;;;;;;4.10;2.67;;;;;24.00;100933.00;;;;5025053;28;20253;-67
2022/05/22 13:11:53;;;;;;;5.77;3.27;;;;;24.50;100940.00;;;;5020942;28;20230;-70
2022/05/22 13:14:59;;;;;;;4.50;2.40;;;;;23.80;100934.00;;;;5019365;28;20229;-71
2022/05/22 13:17:51;;;;;;;3.40;2.60;;;;;23.40;100931.00;;;;5020658;28;20226;-72
2022/05/22 13:20:49;;;;;;;4.50;2.23;;;;;23.80;100923.00;;;;5026034;28;20709;-69
2022/05/22 13:23:40;;;;;;;3.73;2.30;;;;;24.30;100906.00;;;;5009347;28;20253;-71
2022/05/22 13:26:31;;;;;;;5.73;2.90;;;;;35.70;224519.00;;;;5001503;28;20238;-71
2022/05/22 13:29:19;;;;;;;7.23;3.00;;;;;24.80;100911.00;;;;4993124;28;20641;-71
2022/05/22 13:32:15;;;;;;;4.10;2.30;;;;;25.20;100906.00;;;;5002049;28;20249;-71
2022/05/22 13:35:11;;;;;;;3.63;2.23;;;;;25.40;100908.00;;;;4999108;28;20252;-71
2022/05/22 13:37:57;;;;;;;5.57;2.40;;;;;25.50;100912.00;;;;4998595;28;20258;-71
2022/05/22 13:40:52;;;;;;;3.97;2.60;;;;;25.70;100924.00;;;;5005347;28;20234;-69
2022/05/22 13:44:12;;;;;;;4.90;2.40;;;;;25.70;100908.00;;;;5004844;28;20226;-71
2022/05/22 13:47:34;;;;;;;5.03;2.53;;;;;25.70;100906.00;;;;4986667;28;20297;-71
2022/05/22 13:53:45;;;;;;;2.20;2.00;;;;;25.70;100895.00;;;;5020469;28;20229;-72
2022/05/22 13:56:39;;;;;;;3.33;2.00;;;;;25.90;100883.00;;;;5023530;28;20902;-69
2022/05/22 13:59:31;;;;;;;4.55;2.40;;;;;26.10;100869.00;;;;5023805;28;20245;-70
2022/05/22 14:02:22;;;;;;;6.88;2.45;;;;;26.60;100866.00;;;;5024530;28;20232;-71
2022/05/22 14:05:11;;;;;;;3.17;2.17;;;;;27.00;100873.00;;;;5018414;28;20230;-71
2022/05/22 14:07:57;;;;;;;3.33;2.35;;;;;27.80;100871.00;;;;5018095;28;20448;-69
2022/05/22 14:10:44;;;;;;;3.30;2.05;;;;;27.50;100864.00;;;;5025584;28;20754;-69